Santa Maria Manuela — CSKO — position and weather

sailwx.info

Track history (hours):
 
Tides and Currents Weather Stations Pressure Air Temp Water Temp Dewpoint Dewpoint Depression Visibility Wind Speed Wind Dir Waves Ship Positions

Santa Maria Manuela

Last reported at 2019-Sep-21 22:00 UTC. Time now 2019-Sep-21 22:18 UTC.
Position N 38°14' W 009°20'.

Length 68 m; draft 4.3 m.

Type: Sailing vessel. MMSI: 255806006.

Date/timePositionNaut miles runAvg speedWind from/ knotsBaromVisibWave heightAir tempDewpointWater temp
2019-Sep-21 22:00N 38°14' W 009°20'4 7.1
2019-Sep-21 21:30N 38°17' W 009°21'4 7.5
2019-Sep-21 21:00N 38°21' W 009°21'4 7.0
2019-Sep-21 20:30N 38°25' W 009°21'3 6.2
2019-Sep-21 20:00N 38°28' W 009°21'3 6.1
2019-Sep-21 19:30N 38°31' W 009°21'3 6.1
2019-Sep-21 19:00N 38°34' W 009°22'3 6.2
2019-Sep-21 18:30N 38°37' W 009°22'2 4.8
2019-Sep-21 18:00N 38°39' W 009°20'2 4.6
2019-Sep-21 17:30N 38°41' W 009°18'2 4.6
2019-Sep-21 17:00N 38°41' W 009°15'3 5.9
2019-Sep-21 16:30N 38°41' W 009°11'3 5.7
2019-Sep-21 16:00N 38°42' W 009°08'2 4.9
2019-Sep-21 15:30N 38°44' W 009°06'2 3.0
2019-Sep-21 14:58N 38°46' W 009°05'0 0.0
2019-Sep-21 14:28N 38°46' W 009°05'0 0.0
2019-Sep-21 14:00N 38°46' W 009°05'0 0.0
2019-Sep-21 13:30N 38°46' W 009°05'0 0.0
2019-Sep-21 12:58N 38°46' W 009°05'0 0.0
2019-Sep-21 12:28N 38°46' W 009°05'0 0.0
2019-Sep-21 11:58N 38°46' W 009°05'0 0.0
2019-Sep-21 11:28N 38°46' W 009°05'0 0.0
2019-Sep-21 10:58N 38°46' W 009°05'0 0.0
2019-Sep-21 10:28N 38°46' W 009°05'0 0.0
2019-Sep-21 09:58N 38°46' W 009°05'0 0.0
2019-Sep-21 09:28N 38°46' W 009°05'0 0.0
2019-Sep-21 08:58N 38°46' W 009°05'0 0.0
2019-Sep-21 08:28N 38°46' W 009°05'0 0.0
2019-Sep-21 07:58N 38°46' W 009°05'0 0.0
2019-Sep-21 07:28N 38°46' W 009°05'0 0.0
2019-Sep-21 06:58N 38°46' W 009°05'0 0.0
2019-Sep-21 06:28N 38°46' W 009°05'0 0.0
2019-Sep-21 05:58N 38°46' W 009°05'0 0.0
2019-Sep-21 05:28N 38°46' W 009°05'0 0.0
2019-Sep-21 04:58N 38°46' W 009°05'0 0.0
2019-Sep-21 04:28N 38°46' W 009°05'0 0.0
2019-Sep-21 03:58N 38°46' W 009°05'0 0.0
2019-Sep-21 03:28N 38°46' W 009°05'0 0.0
2019-Sep-21 02:58N 38°46' W 009°05'0 0.0
2019-Sep-21 02:28N 38°46' W 009°05'0 0.0
2019-Sep-21 01:58N 38°46' W 009°05'0 0.0
2019-Sep-21 01:28N 38°46' W 009°05'0 0.0
2019-Sep-21 00:58N 38°46' W 009°05'0 0.0
2019-Sep-21 00:28N 38°46' W 009°05'0 0.0
2019-Sep-20 23:58N 38°46' W 009°05'0 0.0
2019-Sep-20 23:28N 38°46' W 009°05'0 0.0
2019-Sep-20 22:58N 38°46' W 009°05'0 0.0
2019-Sep-20 22:28N 38°46' W 009°05'0 0.0
2019-Sep-20 21:58N 38°46' W 009°05'0 0.0
2019-Sep-20 21:28N 38°46' W 009°05'0 0.0
2019-Sep-20 20:58N 38°46' W 009°05'0 0.0
2019-Sep-20 20:28N 38°46' W 009°05'0 0.0
2019-Sep-20 19:58N 38°46' W 009°05'0 0.0
2019-Sep-20 19:28N 38°46' W 009°05'0 0.0
2019-Sep-20 18:58N 38°46' W 009°05'0 0.0
2019-Sep-20 18:28N 38°46' W 009°05'0 0.0
2019-Sep-20 17:58N 38°46' W 009°05'0 0.0
2019-Sep-20 17:28N 38°46' W 009°05'0 0.0
2019-Sep-20 16:58N 38°46' W 009°05'0 0.0
2019-Sep-20 16:28N 38°46' W 009°05'0 0.0
2019-Sep-20 15:58N 38°46' W 009°05'0 0.0
2019-Sep-20 15:28N 38°46' W 009°05'0 0.0
2019-Sep-20 14:58N 38°46' W 009°05'0 0.0
2019-Sep-20 14:28N 38°46' W 009°05'0 0.0
2019-Sep-20 13:58N 38°46' W 009°05'0 0.0
2019-Sep-20 13:28N 38°46' W 009°05'0 0.0
2019-Sep-20 12:58N 38°46' W 009°05'0 0.0
2019-Sep-20 12:28N 38°46' W 009°05'0 0.0
2019-Sep-20 11:58N 38°46' W 009°05'0 0.0
2019-Sep-20 11:28N 38°46' W 009°05'0 0.0
2019-Sep-20 10:58N 38°46' W 009°05'0 0.0
2019-Sep-20 10:28N 38°46' W 009°05'0 0.0
2019-Sep-20 09:58N 38°46' W 009°05'0 0.0
2019-Sep-20 09:28N 38°46' W 009°05'0 0.0
2019-Sep-20 08:58N 38°46' W 009°05'0 0.0
2019-Sep-20 08:28N 38°46' W 009°05'0 0.0
2019-Sep-20 07:58N 38°46' W 009°05'0 0.0
2019-Sep-20 07:28N 38°46' W 009°05'0 0.0
2019-Sep-20 06:58N 38°46' W 009°05'0 0.0
2019-Sep-20 06:28N 38°46' W 009°05'0 0.0
2019-Sep-20 05:58N 38°46' W 009°05'0 0.0
2019-Sep-20 05:28N 38°46' W 009°05'0 0.0
2019-Sep-20 04:58N 38°46' W 009°05'0 0.0
2019-Sep-20 04:28N 38°46' W 009°05'0 0.0
2019-Sep-20 03:58N 38°46' W 009°05'0 0.0
2019-Sep-20 03:28N 38°46' W 009°05'0 0.0
2019-Sep-20 02:58N 38°46' W 009°05'0 0.0
2019-Sep-20 02:28N 38°46' W 009°05'0 0.0
2019-Sep-20 01:58N 38°46' W 009°05'0 0.0
2019-Sep-20 01:28N 38°46' W 009°05'0 0.0
2019-Sep-20 00:58N 38°46' W 009°05'0 0.0
2019-Sep-20 00:28N 38°46' W 009°05'0 0.0
2019-Sep-19 23:58N 38°46' W 009°05'0 0.0
2019-Sep-19 23:28N 38°46' W 009°05'0 0.0
2019-Sep-19 22:58N 38°46' W 009°05'0 0.0
2019-Sep-19 22:28N 38°46' W 009°05'0 0.0
2019-Sep-19 21:58N 38°46' W 009°05'0 0.0
2019-Sep-19 21:28N 38°46' W 009°05'0 0.0
2019-Sep-19 20:58N 38°46' W 009°05'0 0.0
2019-Sep-19 20:28N 38°46' W 009°05'0 0.0
2019-Sep-19 19:58N 38°46' W 009°05'0 0.0
2019-Sep-19 19:28N 38°46' W 009°05'0 0.0
2019-Sep-19 18:58N 38°46' W 009°05'0 0.0
2019-Sep-19 18:28N 38°46' W 009°05'0 0.0
2019-Sep-19 17:58N 38°46' W 009°05'0 0.0
2019-Sep-19 17:28N 38°46' W 009°05'0 0.0
2019-Sep-19 16:58N 38°46' W 009°05'0 0.0
2019-Sep-19 16:28N 38°46' W 009°05'0 0.0
2019-Sep-19 15:55N 38°46' W 009°05'0 0.0
2019-Sep-19 15:28N 38°46' W 009°05'0 0.0
2019-Sep-19 14:58N 38°46' W 009°05'0 0.0
2019-Sep-19 14:28N 38°46' W 009°05'0 0.0
2019-Sep-19 13:58N 38°46' W 009°05'0 0.0
2019-Sep-19 13:28N 38°46' W 009°05'0 0.0
2019-Sep-19 12:58N 38°46' W 009°05'0 0.0
2019-Sep-19 12:28N 38°46' W 009°05'0 0.0
2019-Sep-19 11:58N 38°46' W 009°05'0 0.0
2019-Sep-19 11:28N 38°46' W 009°05'0 0.0
2019-Sep-19 10:58N 38°46' W 009°05'0 0.0
2019-Sep-19 10:28N 38°46' W 009°05'0 0.0
2019-Sep-19 09:58N 38°46' W 009°05'0 0.0
2019-Sep-19 09:28N 38°46' W 009°05'0 0.0
2019-Sep-19 08:58N 38°46' W 009°05'0 0.0
2019-Sep-19 08:28N 38°46' W 009°05'0 0.0
2019-Sep-19 07:58N 38°46' W 009°05'0 0.0
2019-Sep-19 07:28N 38°46' W 009°05'0 0.0
2019-Sep-19 06:58N 38°46' W 009°05'0 0.0
2019-Sep-19 06:28N 38°46' W 009°05'0 0.0
2019-Sep-19 05:58N 38°46' W 009°05'0 0.0
2019-Sep-19 05:28N 38°46' W 009°05'0 0.0
2019-Sep-19 04:58N 38°46' W 009°05'0 0.0
2019-Sep-19 04:28N 38°46' W 009°05'0 0.0
2019-Sep-19 03:58N 38°46' W 009°05'0 0.0
2019-Sep-19 03:28N 38°46' W 009°05'0 0.0
2019-Sep-19 02:58N 38°46' W 009°05'0 0.0
2019-Sep-19 02:28N 38°46' W 009°05'0 0.0
2019-Sep-19 01:58N 38°46' W 009°05'0 0.0
2019-Sep-19 01:28N 38°46' W 009°05'0 0.0
2019-Sep-19 00:58N 38°46' W 009°05'0 0.0
2019-Sep-19 00:28N 38°46' W 009°05'0 0.0
2019-Sep-18 23:58N 38°46' W 009°05'0 0.0
2019-Sep-18 23:28N 38°46' W 009°05'0 0.0
2019-Sep-18 22:58N 38°46' W 009°05'0 0.0
2019-Sep-18 22:28N 38°46' W 009°05'0 0.0
2019-Sep-18 21:58N 38°46' W 009°05'0 0.0
2019-Sep-18 21:28N 38°46' W 009°05'0 0.0
2019-Sep-18 20:58N 38°46' W 009°05'0 0.0
2019-Sep-18 20:31N 38°46' W 009°05'0 0.0
2019-Sep-18 19:58N 38°46' W 009°05'0 0.0
2019-Sep-18 19:28N 38°46' W 009°05'0 0.0
2019-Sep-18 18:58N 38°46' W 009°05'0 0.0
2019-Sep-18 18:28N 38°46' W 009°05'0 0.0
2019-Sep-18 17:58N 38°46' W 009°05'0 0.0
2019-Sep-18 17:28N 38°46' W 009°05'0 0.0
2019-Sep-18 16:58N 38°46' W 009°05'0 0.0
2019-Sep-18 16:30N 38°46' W 009°05'0 0.0
2019-Sep-18 16:00N 38°46' W 009°05'0 0.3
2019-Sep-18 15:31N 38°45' W 009°05'4 8.7
2019-Sep-18 15:00N 38°42' W 009°08'3 6.2
2019-Sep-18 14:30N 38°41' W 009°12'1 2.5
2019-Sep-18 14:01N 38°41' W 009°14'3 6.9
2019-Sep-18 13:30N 38°40' W 009°18'4 8.3
2019-Sep-18 13:00N 38°37' W 009°22'3 7.0
2019-Sep-18 12:30N 38°35' W 009°25'3 5.3
2019-Sep-18 12:00N 38°33' W 009°28'1 2.9
2019-Sep-18 11:30N 38°32' W 009°26'1 2.4
2019-Sep-18 11:00N 38°32' W 009°25'1 1.6
2019-Sep-18 10:30N 38°31' W 009°24'1 1.3
2019-Sep-18 10:00N 38°32' W 009°23'1 2.7
2019-Sep-18 09:30N 38°33' W 009°23'2 3.1
2019-Sep-18 09:00N 38°34' W 009°25'1 2.4
2019-Sep-18 08:30N 38°34' W 009°26'0 0.9
2019-Sep-18 08:00N 38°35' W 009°26'1 1.2
2019-Sep-18 07:30N 38°34' W 009°25'1 1.5
2019-Sep-18 07:00N 38°34' W 009°24'1 1.3
2019-Sep-18 06:30N 38°33' W 009°24'1 1.5
2019-Sep-18 06:00N 38°33' W 009°24'1 1.9
2019-Sep-18 05:30N 38°32' W 009°24'1 1.7
2019-Sep-18 05:00N 38°31' W 009°24'1 1.6
2019-Sep-18 04:30N 38°30' W 009°24'1 1.8
2019-Sep-18 04:00N 38°29' W 009°23'1 1.5
2019-Sep-18 03:30N 38°29' W 009°23'1 1.4
2019-Sep-18 03:00N 38°28' W 009°23'1 1.6
2019-Sep-18 02:30N 38°27' W 009°22'1 1.6
2019-Sep-18 02:00N 38°27' W 009°22'1 1.6
2019-Sep-18 01:30N 38°26' W 009°21'1 2.8
2019-Sep-18 01:00N 38°25' W 009°20'1 1.7
2019-Sep-18 00:30N 38°24' W 009°20'1 1.1
2019-Sep-18 00:00N 38°24' W 009°20'1 1.2
2019-Sep-17 23:30N 38°23' W 009°19'1 1.0
2019-Sep-17 23:00N 38°23' W 009°19'1 1.3
2019-Sep-17 22:30N 38°22' W 009°18'1 1.4
2019-Sep-17 22:00N 38°22' W 009°17'1 1.9
2019-Sep-17 21:30N 38°23' W 009°16'2 3.6
2019-Sep-17 21:00N 38°23' W 009°14'1 1.5
2019-Sep-17 20:30N 38°23' W 009°14'1 2.5
2019-Sep-17 20:00N 38°24' W 009°16'2 3.4
2019-Sep-17 19:30N 38°24' W 009°18'2 3.3
2019-Sep-17 19:00N 38°24' W 009°20'2 3.2
2019-Sep-17 18:30N 38°25' W 009°22'2 3.4
2019-Sep-17 18:00N 38°25' W 009°24'1 2.2
2019-Sep-17 17:30N 38°25' W 009°25'1 1.2
2019-Sep-17 17:00N 38°26' W 009°26'1 1.5
2019-Sep-17 16:30N 38°26' W 009°25'1 2.0
2019-Sep-17 16:00N 38°25' W 009°24'1 1.4
2019-Sep-17 15:30N 38°26' W 009°24'1 2.1
2019-Sep-17 15:00N 38°27' W 009°25'1 2.0
2019-Sep-17 14:30N 38°28' W 009°26'1 2.0
2019-Sep-17 14:00N 38°29' W 009°26'1 1.9
2019-Sep-17 13:30N 38°29' W 009°27'1 1.9
2019-Sep-17 13:00N 38°30' W 009°27'1 2.0
2019-Sep-17 12:30N 38°31' W 009°28'1 2.2
2019-Sep-17 12:00N 38°32' W 009°28'1 2.4
2019-Sep-17 11:30N 38°33' W 009°29'1 2.3
2019-Sep-17 11:00N 38°34' W 009°30'1 2.2
2019-Sep-17 10:30N 38°35' W 009°30'1 1.4
2019-Sep-17 10:00N 38°36' W 009°30'1 1.4
2019-Sep-17 09:30N 38°37' W 009°29'1 1.5
2019-Sep-17 09:00N 38°38' W 009°29'1 1.2
2019-Sep-17 08:30N 38°38' W 009°29'0 0.7
2019-Sep-17 08:00N 38°38' W 009°29'1 1.0
2019-Sep-17 07:30N 38°38' W 009°29'1 1.4
2019-Sep-17 07:00N 38°37' W 009°29'1 2.1
2019-Sep-17 06:30N 38°36' W 009°28'1 2.6
2019-Sep-17 06:00N 38°35' W 009°27'0 0.6
2019-Sep-17 05:30N 38°35' W 009°27'1 1.4
2019-Sep-17 05:00N 38°36' W 009°27'1 1.5
2019-Sep-17 04:30N 38°37' W 009°27'1 1.7
2019-Sep-17 04:00N 38°37' W 009°28'1 1.8
2019-Sep-17 03:30N 38°38' W 009°28'0 0.5
2019-Sep-17 03:00N 38°38' W 009°29'1 1.6
2019-Sep-17 02:30N 38°37' W 009°28'0 0.6
2019-Sep-17 02:00N 38°38' W 009°28'1 1.5
2019-Sep-17 01:30N 38°38' W 009°29'1 1.5
2019-Sep-17 01:00N 38°39' W 009°29'1 1.5
2019-Sep-17 00:30N 38°39' W 009°30'1 1.3
2019-Sep-17 00:00N 38°40' W 009°30'1 1.3
2019-Sep-16 23:30N 38°41' W 009°31'1 1.6
2019-Sep-16 23:00N 38°40' W 009°30'1 2.2
2019-Sep-16 22:30N 38°39' W 009°29'1 2.7
2019-Sep-16 22:00N 38°38' W 009°28'1 1.8
2019-Sep-16 21:30N 38°37' W 009°27'1 1.8
2019-Sep-16 21:00N 38°37' W 009°27'1 2.9
2019-Sep-16 20:30N 38°35' W 009°26'1 2.7
2019-Sep-16 20:00N 38°36' W 009°24'2 4.7
2019-Sep-16 19:30N 38°37' W 009°22'4 7.2
2019-Sep-16 19:00N 38°40' W 009°19'4 7.7
2019-Sep-16 18:30N 38°41' W 009°14'5 9.1
2019-Sep-16 18:00N 38°42' W 009°08'4 8.1
2019-Sep-16 17:30N 38°45' W 009°05'0 0.4
2019-Sep-16 17:01N 38°46' W 009°05'0 0.0
2019-Sep-16 16:30N 38°46' W 009°05'0 0.0
2019-Sep-16 15:58N 38°45' W 009°05'0 0.0
2019-Sep-16 15:28N 38°46' W 009°05'0 0.0
2019-Sep-16 14:57N 38°45' W 009°05'0 0.0
2019-Sep-16 14:30N 38°45' W 009°05'0 0.0
2019-Sep-16 13:55N 38°45' W 009°05'0 0.0
2019-Sep-16 13:28N 38°45' W 009°05'0 0.0
2019-Sep-16 13:00N 38°45' W 009°05'0 0.0
2019-Sep-16 12:31N 38°45' W 009°05'0 0.0
2019-Sep-16 12:00N 38°45' W 009°05'0 0.0
2019-Sep-16 11:31N 38°45' W 009°05'0 0.0
2019-Sep-16 10:58N 38°45' W 009°05'0 0.0
2019-Sep-16 10:30N 38°45' W 009°05'0 0.0
2019-Sep-16 10:00N 38°45' W 009°05'0 0.0
2019-Sep-16 09:30N 38°45' W 009°05'0 0.0
2019-Sep-16 09:00N 38°45' W 009°05'0 0.0
2019-Sep-16 08:30N 38°45' W 009°05'0 0.0
2019-Sep-16 08:00N 38°45' W 009°05'0 0.0
2019-Sep-16 07:30N 38°45' W 009°05'0 0.0
2019-Sep-16 07:00N 38°45' W 009°05'0 0.0
2019-Sep-16 06:30N 38°45' W 009°05'0 0.0
2019-Sep-16 06:00N 38°45' W 009°05'0 0.0
2019-Sep-16 05:30N 38°45' W 009°05'0 0.0
2019-Sep-16 05:01N 38°45' W 009°05'0 0.0
2019-Sep-16 04:30N 38°46' W 009°05'0 0.0
2019-Sep-16 04:00N 38°45' W 009°05'0 0.0
2019-Sep-16 03:30N 38°45' W 009°05'0 0.0
2019-Sep-16 03:00N 38°46' W 009°05'0 0.0
2019-Sep-16 02:30N 38°45' W 009°05'0 0.0
2019-Sep-16 02:01N 38°45' W 009°05'0 0.0
2019-Sep-16 01:30N 38°45' W 009°05'0 0.0
2019-Sep-16 01:00N 38°45' W 009°05'0 0.0
2019-Sep-16 00:30N 38°45' W 009°05'0 0.0
2019-Sep-16 00:00N 38°46' W 009°05'0 0.0
2019-Sep-15 23:30N 38°45' W 009°05'0 0.0
2019-Sep-15 23:00N 38°45' W 009°05'0 0.0
2019-Sep-15 22:30N 38°46' W 009°05'0 0.0
2019-Sep-15 22:00N 38°45' W 009°05'0 0.0
2019-Sep-15 21:30N 38°45' W 009°05'0 0.0
2019-Sep-15 21:00N 38°45' W 009°05'0 0.0
2019-Sep-15 20:30N 38°45' W 009°05'0 0.0
2019-Sep-15 20:00N 38°45' W 009°05'0 0.0
2019-Sep-15 19:30N 38°46' W 009°05'0 0.0
2019-Sep-15 19:00N 38°45' W 009°05'0 0.0
2019-Sep-15 18:30N 38°45' W 009°05'0 0.0
2019-Sep-15 18:00N 38°45' W 009°05'0 0.0
2019-Sep-15 17:30N 38°45' W 009°05'0 0.0
2019-Sep-15 17:00N 38°46' W 009°05'0 0.0
2019-Sep-15 16:30N 38°46' W 009°05'0 0.0
2019-Sep-15 16:00N 38°45' W 009°05'0 0.0
2019-Sep-15 15:30N 38°46' W 009°05'0 0.0
2019-Sep-15 15:00N 38°45' W 009°05'0 0.0
2019-Sep-15 14:30N 38°46' W 009°05'0 0.0
2019-Sep-15 14:00N 38°45' W 009°05'0 0.0
2019-Sep-15 13:30N 38°45' W 009°05'0 0.0
2019-Sep-15 13:00N 38°45' W 009°05'0 0.0
2019-Sep-15 12:30N 38°45' W 009°05'0 0.0
2019-Sep-15 12:00N 38°45' W 009°05'0 0.0
2019-Sep-15 11:30N 38°45' W 009°05'0 0.0
2019-Sep-15 11:00N 38°45' W 009°05'0 0.0
2019-Sep-15 10:30N 38°45' W 009°05'0 0.0
2019-Sep-15 10:00N 38°45' W 009°05'0 0.0
2019-Sep-15 09:30N 38°45' W 009°05'0 0.0
2019-Sep-15 09:00N 38°45' W 009°05'0 0.0
2019-Sep-15 08:30N 38°45' W 009°05'0 0.0
2019-Sep-15 08:00N 38°45' W 009°05'0 0.0
2019-Sep-15 07:30N 38°45' W 009°05'1 1.4
2019-Sep-15 07:00N 38°45' W 009°06'2 3.8
2019-Sep-15 06:30N 38°43' W 009°07'2 3.6
2019-Sep-15 06:00N 38°42' W 009°08'2 4.2
2019-Sep-15 05:30N 38°41' W 009°11'2 4.2
2019-Sep-15 05:00N 38°41' W 009°14'2 3.8
2019-Sep-15 04:30N 38°41' W 009°16'1 2.2
2019-Sep-15 04:00N 38°41' W 009°17'2 3.0
2019-Sep-15 03:30N 38°40' W 009°19'2 3.9
2019-Sep-15 03:00N 38°38' W 009°20'3 5.2
2019-Sep-15 02:30N 38°37' W 009°23'2 4.7
2019-Sep-15 02:00N 38°35' W 009°25'3 5.4
2019-Sep-15 01:30N 38°33' W 009°28'3 5.3
2019-Sep-15 01:00N 38°32' W 009°31'2 3.4
2019-Sep-15 00:30N 38°31' W 009°32'2 3.5
2019-Sep-15 00:00N 38°30' W 009°34'2 4.3
2019-Sep-14 23:30N 38°29' W 009°36'3 6.0
2019-Sep-14 23:00N 38°27' W 009°39'3 5.5
2019-Sep-14 22:30N 38°25' W 009°42'3 5.2
2019-Sep-14 22:00N 38°24' W 009°45'2 4.9
2019-Sep-14 21:30N 38°23' W 009°48'2 4.5
2019-Sep-14 21:00N 38°24' W 009°50'2 4.7
2019-Sep-14 20:30N 38°23' W 009°53'2 4.3
2019-Sep-14 20:00N 38°23' W 009°55'2 4.5
2019-Sep-14 19:30N 38°22' W 009°58'2 4.5
2019-Sep-14 19:00N 38°21' W 010°00'2 4.5
2019-Sep-14 18:30N 38°20' W 010°03'2 4.7
2019-Sep-14 18:00N 38°19' W 010°05'2 4.8
2019-Sep-14 17:30N 38°18' W 010°08'2 3.0
2019-Sep-14 16:44N 38°16' W 010°11'0 0.8
2019-Sep-14 16:30N 38°16' W 010°10'1 2.7
2019-Sep-14 16:00N 38°15' W 010°12'1 1.7
2019-Sep-14 15:30N 38°16' W 010°13'1 1.8
2019-Sep-14 15:00N 38°17' W 010°13'1 1.8
2019-Sep-14 14:30N 38°18' W 010°14'1 1.8
2019-Sep-14 13:54N 38°18' W 010°15'2 3.0
2019-Sep-14 13:16N 38°17' W 010°17'1 2.9
2019-Sep-14 13:00N 38°16' W 010°18'8 2.3
2019-Sep-14 09:31N 38°10' W 010°24'30 3.8
2019-Sep-14 01:42N 38°04' W 011°01'5 4.4
2019-Sep-14 00:39N 38°02' W 011°07'35 4.3
2019-Sep-13 16:38N 37°49' W 011°47'1 5.6
2019-Sep-13 16:30N 37°49' W 011°48'3 5.7
2019-Sep-13 16:00N 37°48' W 011°51'3 5.5
2019-Sep-13 15:29N 37°48' W 011°55'3 5.5
2019-Sep-13 15:00N 37°48' W 011°58'  
Track history (hours):
 
Tides and Currents Weather Stations Pressure Air Temp Water Temp Dewpoint Dewpoint Depression Visibility Wind Speed Wind Dir Waves Ship Positions

Santa Maria Manuela

Last reported at 2019-Sep-21 22:00 UTC. Time now 2019-Sep-21 22:18 UTC.
Position N 38°14' W 009°20'.

Length 68 m; draft 4.3 m.

Type: Sailing vessel. MMSI: 255806006.

Date/timePositionNaut miles runAvg speedWind from/ knotsBaromVisibWave heightAir tempDewpointWater temp
2019-Sep-21 22:00N 38°14' W 009°20'4 7.1
2019-Sep-21 21:30N 38°17' W 009°21'4 7.5
2019-Sep-21 21:00N 38°21' W 009°21'4 7.0
2019-Sep-21 20:30N 38°25' W 009°21'3 6.2
2019-Sep-21 20:00N 38°28' W 009°21'3 6.1
2019-Sep-21 19:30N 38°31' W 009°21'3 6.1
2019-Sep-21 19:00N 38°34' W 009°22'3 6.2
2019-Sep-21 18:30N 38°37' W 009°22'2 4.8
2019-Sep-21 18:00N 38°39' W 009°20'2 4.6
2019-Sep-21 17:30N 38°41' W 009°18'2 4.6
2019-Sep-21 17:00N 38°41' W 009°15'3 5.9
2019-Sep-21 16:30N 38°41' W 009°11'3 5.7
2019-Sep-21 16:00N 38°42' W 009°08'2 4.9
2019-Sep-21 15:30N 38°44' W 009°06'2 3.0
2019-Sep-21 14:58N 38°46' W 009°05'0 0.0
2019-Sep-21 14:28N 38°46' W 009°05'0 0.0
2019-Sep-21 14:00N 38°46' W 009°05'0 0.0
2019-Sep-21 13:30N 38°46' W 009°05'0 0.0
2019-Sep-21 12:58N 38°46' W 009°05'0 0.0
2019-Sep-21 12:28N 38°46' W 009°05'0 0.0
2019-Sep-21 11:58N 38°46' W 009°05'0 0.0
2019-Sep-21 11:28N 38°46' W 009°05'0 0.0
2019-Sep-21 10:58N 38°46' W 009°05'0 0.0
2019-Sep-21 10:28N 38°46' W 009°05'0 0.0
2019-Sep-21 09:58N 38°46' W 009°05'0 0.0
2019-Sep-21 09:28N 38°46' W 009°05'0 0.0
2019-Sep-21 08:58N 38°46' W 009°05'0 0.0
2019-Sep-21 08:28N 38°46' W 009°05'0 0.0
2019-Sep-21 07:58N 38°46' W 009°05'0 0.0
2019-Sep-21 07:28N 38°46' W 009°05'0 0.0
2019-Sep-21 06:58N 38°46' W 009°05'0 0.0
2019-Sep-21 06:28N 38°46' W 009°05'0 0.0
2019-Sep-21 05:58N 38°46' W 009°05'0 0.0
2019-Sep-21 05:28N 38°46' W 009°05'0 0.0
2019-Sep-21 04:58N 38°46' W 009°05'0 0.0
2019-Sep-21 04:28N 38°46' W 009°05'0 0.0
2019-Sep-21 03:58N 38°46' W 009°05'0 0.0
2019-Sep-21 03:28N 38°46' W 009°05'0 0.0
2019-Sep-21 02:58N 38°46' W 009°05'0 0.0
2019-Sep-21 02:28N 38°46' W 009°05'0 0.0
2019-Sep-21 01:58N 38°46' W 009°05'0 0.0
2019-Sep-21 01:28N 38°46' W 009°05'0 0.0
2019-Sep-21 00:58N 38°46' W 009°05'0 0.0
2019-Sep-21 00:28N 38°46' W 009°05'0 0.0
2019-Sep-20 23:58N 38°46' W 009°05'0 0.0
2019-Sep-20 23:28N 38°46' W 009°05'0 0.0
2019-Sep-20 22:58N 38°46' W 009°05'0 0.0
2019-Sep-20 22:28N 38°46' W 009°05'0 0.0
2019-Sep-20 21:58N 38°46' W 009°05'0 0.0
2019-Sep-20 21:28N 38°46' W 009°05'0 0.0
2019-Sep-20 20:58N 38°46' W 009°05'0 0.0
2019-Sep-20 20:28N 38°46' W 009°05'0 0.0
2019-Sep-20 19:58N 38°46' W 009°05'0 0.0
2019-Sep-20 19:28N 38°46' W 009°05'0 0.0
2019-Sep-20 18:58N 38°46' W 009°05'0 0.0
2019-Sep-20 18:28N 38°46' W 009°05'0 0.0
2019-Sep-20 17:58N 38°46' W 009°05'0 0.0
2019-Sep-20 17:28N 38°46' W 009°05'0 0.0
2019-Sep-20 16:58N 38°46' W 009°05'0 0.0
2019-Sep-20 16:28N 38°46' W 009°05'0 0.0
2019-Sep-20 15:58N 38°46' W 009°05'0 0.0
2019-Sep-20 15:28N 38°46' W 009°05'0 0.0
2019-Sep-20 14:58N 38°46' W 009°05'0 0.0
2019-Sep-20 14:28N 38°46' W 009°05'0 0.0
2019-Sep-20 13:58N 38°46' W 009°05'0 0.0
2019-Sep-20 13:28N 38°46' W 009°05'0 0.0
2019-Sep-20 12:58N 38°46' W 009°05'0 0.0
2019-Sep-20 12:28N 38°46' W 009°05'0 0.0
2019-Sep-20 11:58N 38°46' W 009°05'0 0.0
2019-Sep-20 11:28N 38°46' W 009°05'0 0.0
2019-Sep-20 10:58N 38°46' W 009°05'0 0.0
2019-Sep-20 10:28N 38°46' W 009°05'0 0.0
2019-Sep-20 09:58N 38°46' W 009°05'0 0.0
2019-Sep-20 09:28N 38°46' W 009°05'0 0.0
2019-Sep-20 08:58N 38°46' W 009°05'0 0.0
2019-Sep-20 08:28N 38°46' W 009°05'0 0.0
2019-Sep-20 07:58N 38°46' W 009°05'0 0.0
2019-Sep-20 07:28N 38°46' W 009°05'0 0.0
2019-Sep-20 06:58N 38°46' W 009°05'0 0.0
2019-Sep-20 06:28N 38°46' W 009°05'0 0.0
2019-Sep-20 05:58N 38°46' W 009°05'0 0.0
2019-Sep-20 05:28N 38°46' W 009°05'0 0.0
2019-Sep-20 04:58N 38°46' W 009°05'0 0.0
2019-Sep-20 04:28N 38°46' W 009°05'0 0.0
2019-Sep-20 03:58N 38°46' W 009°05'0 0.0
2019-Sep-20 03:28N 38°46' W 009°05'0 0.0
2019-Sep-20 02:58N 38°46' W 009°05'0 0.0
2019-Sep-20 02:28N 38°46' W 009°05'0 0.0
2019-Sep-20 01:58N 38°46' W 009°05'0 0.0
2019-Sep-20 01:28N 38°46' W 009°05'0 0.0
2019-Sep-20 00:58N 38°46' W 009°05'0 0.0
2019-Sep-20 00:28N 38°46' W 009°05'0 0.0
2019-Sep-19 23:58N 38°46' W 009°05'0 0.0
2019-Sep-19 23:28N 38°46' W 009°05'0 0.0
2019-Sep-19 22:58N 38°46' W 009°05'0 0.0
2019-Sep-19 22:28N 38°46' W 009°05'0 0.0
2019-Sep-19 21:58N 38°46' W 009°05'0 0.0
2019-Sep-19 21:28N 38°46' W 009°05'0 0.0
2019-Sep-19 20:58N 38°46' W 009°05'0 0.0
2019-Sep-19 20:28N 38°46' W 009°05'0 0.0
2019-Sep-19 19:58N 38°46' W 009°05'0 0.0
2019-Sep-19 19:28N 38°46' W 009°05'0 0.0
2019-Sep-19 18:58N 38°46' W 009°05'0 0.0
2019-Sep-19 18:28N 38°46' W 009°05'0 0.0
2019-Sep-19 17:58N 38°46' W 009°05'0 0.0
2019-Sep-19 17:28N 38°46' W 009°05'0 0.0
2019-Sep-19 16:58N 38°46' W 009°05'0 0.0
2019-Sep-19 16:28N 38°46' W 009°05'0 0.0
2019-Sep-19 15:55N 38°46' W 009°05'0 0.0
2019-Sep-19 15:28N 38°46' W 009°05'0 0.0
2019-Sep-19 14:58N 38°46' W 009°05'0 0.0
2019-Sep-19 14:28N 38°46' W 009°05'0 0.0
2019-Sep-19 13:58N 38°46' W 009°05'0 0.0
2019-Sep-19 13:28N 38°46' W 009°05'0 0.0
2019-Sep-19 12:58N 38°46' W 009°05'0 0.0
2019-Sep-19 12:28N 38°46' W 009°05'0 0.0
2019-Sep-19 11:58N 38°46' W 009°05'0 0.0
2019-Sep-19 11:28N 38°46' W 009°05'0 0.0
2019-Sep-19 10:58N 38°46' W 009°05'0 0.0
2019-Sep-19 10:28N 38°46' W 009°05'0 0.0
2019-Sep-19 09:58N 38°46' W 009°05'0 0.0
2019-Sep-19 09:28N 38°46' W 009°05'0 0.0
2019-Sep-19 08:58N 38°46' W 009°05'0 0.0
2019-Sep-19 08:28N 38°46' W 009°05'0 0.0
2019-Sep-19 07:58N 38°46' W 009°05'0 0.0
2019-Sep-19 07:28N 38°46' W 009°05'0 0.0
2019-Sep-19 06:58N 38°46' W 009°05'0 0.0
2019-Sep-19 06:28N 38°46' W 009°05'0 0.0
2019-Sep-19 05:58N 38°46' W 009°05'0 0.0
2019-Sep-19 05:28N 38°46' W 009°05'0 0.0
2019-Sep-19 04:58N 38°46' W 009°05'0 0.0
2019-Sep-19 04:28N 38°46' W 009°05'0 0.0
2019-Sep-19 03:58N 38°46' W 009°05'0 0.0
2019-Sep-19 03:28N 38°46' W 009°05'0 0.0
2019-Sep-19 02:58N 38°46' W 009°05'0 0.0
2019-Sep-19 02:28N 38°46' W 009°05'0 0.0
2019-Sep-19 01:58N 38°46' W 009°05'0 0.0
2019-Sep-19 01:28N 38°46' W 009°05'0 0.0
2019-Sep-19 00:58N 38°46' W 009°05'0 0.0
2019-Sep-19 00:28N 38°46' W 009°05'0 0.0
2019-Sep-18 23:58N 38°46' W 009°05'0 0.0
2019-Sep-18 23:28N 38°46' W 009°05'0 0.0
2019-Sep-18 22:58N 38°46' W 009°05'0 0.0
2019-Sep-18 22:28N 38°46' W 009°05'0 0.0
2019-Sep-18 21:58N 38°46' W 009°05'0 0.0
2019-Sep-18 21:28N 38°46' W 009°05'0 0.0
2019-Sep-18 20:58N 38°46' W 009°05'0 0.0
2019-Sep-18 20:31N 38°46' W 009°05'0 0.0
2019-Sep-18 19:58N 38°46' W 009°05'0 0.0
2019-Sep-18 19:28N 38°46' W 009°05'0 0.0
2019-Sep-18 18:58N 38°46' W 009°05'0 0.0
2019-Sep-18 18:28N 38°46' W 009°05'0 0.0
2019-Sep-18 17:58N 38°46' W 009°05'0 0.0
2019-Sep-18 17:28N 38°46' W 009°05'0 0.0
2019-Sep-18 16:58N 38°46' W 009°05'0 0.0
2019-Sep-18 16:30N 38°46' W 009°05'0 0.0
2019-Sep-18 16:00N 38°46' W 009°05'0 0.3
2019-Sep-18 15:31N 38°45' W 009°05'4 8.7
2019-Sep-18 15:00N 38°42' W 009°08'3 6.2
2019-Sep-18 14:30N 38°41' W 009°12'1 2.5
2019-Sep-18 14:01N 38°41' W 009°14'3 6.9
2019-Sep-18 13:30N 38°40' W 009°18'4 8.3
2019-Sep-18 13:00N 38°37' W 009°22'3 7.0
2019-Sep-18 12:30N 38°35' W 009°25'3 5.3
2019-Sep-18 12:00N 38°33' W 009°28'1 2.9
2019-Sep-18 11:30N 38°32' W 009°26'1 2.4
2019-Sep-18 11:00N 38°32' W 009°25'1 1.6
2019-Sep-18 10:30N 38°31' W 009°24'1 1.3
2019-Sep-18 10:00N 38°32' W 009°23'1 2.7
2019-Sep-18 09:30N 38°33' W 009°23'2 3.1
2019-Sep-18 09:00N 38°34' W 009°25'1 2.4
2019-Sep-18 08:30N 38°34' W 009°26'0 0.9
2019-Sep-18 08:00N 38°35' W 009°26'1 1.2
2019-Sep-18 07:30N 38°34' W 009°25'1 1.5
2019-Sep-18 07:00N 38°34' W 009°24'1 1.3
2019-Sep-18 06:30N 38°33' W 009°24'1 1.5
2019-Sep-18 06:00N 38°33' W 009°24'1 1.9
2019-Sep-18 05:30N 38°32' W 009°24'1 1.7
2019-Sep-18 05:00N 38°31' W 009°24'1 1.6
2019-Sep-18 04:30N 38°30' W 009°24'1 1.8
2019-Sep-18 04:00N 38°29' W 009°23'1 1.5
2019-Sep-18 03:30N 38°29' W 009°23'1 1.4
2019-Sep-18 03:00N 38°28' W 009°23'1 1.6
2019-Sep-18 02:30N 38°27' W 009°22'1 1.6
2019-Sep-18 02:00N 38°27' W 009°22'1 1.6
2019-Sep-18 01:30N 38°26' W 009°21'1 2.8
2019-Sep-18 01:00N 38°25' W 009°20'1 1.7
2019-Sep-18 00:30N 38°24' W 009°20'1 1.1
2019-Sep-18 00:00N 38°24' W 009°20'1 1.2
2019-Sep-17 23:30N 38°23' W 009°19'1 1.0
2019-Sep-17 23:00N 38°23' W 009°19'1 1.3
2019-Sep-17 22:30N 38°22' W 009°18'1 1.4
2019-Sep-17 22:00N 38°22' W 009°17'1 1.9
2019-Sep-17 21:30N 38°23' W 009°16'2 3.6
2019-Sep-17 21:00N 38°23' W 009°14'1 1.5
2019-Sep-17 20:30N 38°23' W 009°14'1 2.5
2019-Sep-17 20:00N 38°24' W 009°16'2 3.4
2019-Sep-17 19:30N 38°24' W 009°18'2 3.3
2019-Sep-17 19:00N 38°24' W 009°20'2 3.2
2019-Sep-17 18:30N 38°25' W 009°22'2 3.4
2019-Sep-17 18:00N 38°25' W 009°24'1 2.2
2019-Sep-17 17:30N 38°25' W 009°25'1 1.2
2019-Sep-17 17:00N 38°26' W 009°26'1 1.5
2019-Sep-17 16:30N 38°26' W 009°25'1 2.0
2019-Sep-17 16:00N 38°25' W 009°24'1 1.4
2019-Sep-17 15:30N 38°26' W 009°24'1 2.1
2019-Sep-17 15:00N 38°27' W 009°25'1 2.0
2019-Sep-17 14:30N 38°28' W 009°26'1 2.0
2019-Sep-17 14:00N 38°29' W 009°26'1 1.9
2019-Sep-17 13:30N 38°29' W 009°27'1 1.9
2019-Sep-17 13:00N 38°30' W 009°27'1 2.0
2019-Sep-17 12:30N 38°31' W 009°28'1 2.2
2019-Sep-17 12:00N 38°32' W 009°28'1 2.4
2019-Sep-17 11:30N 38°33' W 009°29'1 2.3
2019-Sep-17 11:00N 38°34' W 009°30'1 2.2
2019-Sep-17 10:30N 38°35' W 009°30'1 1.4
2019-Sep-17 10:00N 38°36' W 009°30'1 1.4
2019-Sep-17 09:30N 38°37' W 009°29'1 1.5
2019-Sep-17 09:00N 38°38' W 009°29'1 1.2
2019-Sep-17 08:30N 38°38' W 009°29'0 0.7
2019-Sep-17 08:00N 38°38' W 009°29'1 1.0
2019-Sep-17 07:30N 38°38' W 009°29'1 1.4
2019-Sep-17 07:00N 38°37' W 009°29'1 2.1
2019-Sep-17 06:30N 38°36' W 009°28'1 2.6
2019-Sep-17 06:00N 38°35' W 009°27'0 0.6
2019-Sep-17 05:30N 38°35' W 009°27'1 1.4
2019-Sep-17 05:00N 38°36' W 009°27'1 1.5
2019-Sep-17 04:30N 38°37' W 009°27'1 1.7
2019-Sep-17 04:00N 38°37' W 009°28'1 1.8
2019-Sep-17 03:30N 38°38' W 009°28'0 0.5
2019-Sep-17 03:00N 38°38' W 009°29'1 1.6
2019-Sep-17 02:30N 38°37' W 009°28'0 0.6
2019-Sep-17 02:00N 38°38' W 009°28'1 1.5
2019-Sep-17 01:30N 38°38' W 009°29'1 1.5
2019-Sep-17 01:00N 38°39' W 009°29'1 1.5
2019-Sep-17 00:30N 38°39' W 009°30'1 1.3
2019-Sep-17 00:00N 38°40' W 009°30'1 1.3
2019-Sep-16 23:30N 38°41' W 009°31'1 1.6
2019-Sep-16 23:00N 38°40' W 009°30'1 2.2
2019-Sep-16 22:30N 38°39' W 009°29'1 2.7
2019-Sep-16 22:00N 38°38' W 009°28'1 1.8
2019-Sep-16 21:30N 38°37' W 009°27'1 1.8
2019-Sep-16 21:00N 38°37' W 009°27'1 2.9
2019-Sep-16 20:30N 38°35' W 009°26'1 2.7
2019-Sep-16 20:00N 38°36' W 009°24'2 4.7
2019-Sep-16 19:30N 38°37' W 009°22'4 7.2
2019-Sep-16 19:00N 38°40' W 009°19'4 7.7
2019-Sep-16 18:30N 38°41' W 009°14'5 9.1
2019-Sep-16 18:00N 38°42' W 009°08'4 8.1
2019-Sep-16 17:30N 38°45' W 009°05'0 0.4
2019-Sep-16 17:01N 38°46' W 009°05'0 0.0
2019-Sep-16 16:30N 38°46' W 009°05'0 0.0
2019-Sep-16 15:58N 38°45' W 009°05'0 0.0
2019-Sep-16 15:28N 38°46' W 009°05'0 0.0
2019-Sep-16 14:57N 38°45' W 009°05'0 0.0
2019-Sep-16 14:30N 38°45' W 009°05'0 0.0
2019-Sep-16 13:55N 38°45' W 009°05'0 0.0
2019-Sep-16 13:28N 38°45' W 009°05'0 0.0
2019-Sep-16 13:00N 38°45' W 009°05'0 0.0
2019-Sep-16 12:31N 38°45' W 009°05'0 0.0
2019-Sep-16 12:00N 38°45' W 009°05'0 0.0
2019-Sep-16 11:31N 38°45' W 009°05'0 0.0
2019-Sep-16 10:58N 38°45' W 009°05'0 0.0
2019-Sep-16 10:30N 38°45' W 009°05'0 0.0
2019-Sep-16 10:00N 38°45' W 009°05'0 0.0
2019-Sep-16 09:30N 38°45' W 009°05'0 0.0
2019-Sep-16 09:00N 38°45' W 009°05'0 0.0
2019-Sep-16 08:30N 38°45' W 009°05'0 0.0
2019-Sep-16 08:00N 38°45' W 009°05'0 0.0
2019-Sep-16 07:30N 38°45' W 009°05'0 0.0
2019-Sep-16 07:00N 38°45' W 009°05'0 0.0
2019-Sep-16 06:30N 38°45' W 009°05'0 0.0
2019-Sep-16 06:00N 38°45' W 009°05'0 0.0
2019-Sep-16 05:30N 38°45' W 009°05'0 0.0
2019-Sep-16 05:01N 38°45' W 009°05'0 0.0
2019-Sep-16 04:30N 38°46' W 009°05'0 0.0
2019-Sep-16 04:00N 38°45' W 009°05'0 0.0
2019-Sep-16 03:30N 38°45' W 009°05'0 0.0
2019-Sep-16 03:00N 38°46' W 009°05'0 0.0
2019-Sep-16 02:30N 38°45' W 009°05'0 0.0
2019-Sep-16 02:01N 38°45' W 009°05'0 0.0
2019-Sep-16 01:30N 38°45' W 009°05'0 0.0
2019-Sep-16 01:00N 38°45' W 009°05'0 0.0
2019-Sep-16 00:30N 38°45' W 009°05'0 0.0
2019-Sep-16 00:00N 38°46' W 009°05'0 0.0
2019-Sep-15 23:30N 38°45' W 009°05'0 0.0
2019-Sep-15 23:00N 38°45' W 009°05'0 0.0
2019-Sep-15 22:30N 38°46' W 009°05'0 0.0
2019-Sep-15 22:00N 38°45' W 009°05'0 0.0
2019-Sep-15 21:30N 38°45' W 009°05'0 0.0
2019-Sep-15 21:00N 38°45' W 009°05'0 0.0
2019-Sep-15 20:30N 38°45' W 009°05'0 0.0
2019-Sep-15 20:00N 38°45' W 009°05'0 0.0
2019-Sep-15 19:30N 38°46' W 009°05'0 0.0
2019-Sep-15 19:00N 38°45' W 009°05'0 0.0
2019-Sep-15 18:30N 38°45' W 009°05'0 0.0
2019-Sep-15 18:00N 38°45' W 009°05'0 0.0
2019-Sep-15 17:30N 38°45' W 009°05'0 0.0
2019-Sep-15 17:00N 38°46' W 009°05'0 0.0
2019-Sep-15 16:30N 38°46' W 009°05'0 0.0
2019-Sep-15 16:00N 38°45' W 009°05'0 0.0
2019-Sep-15 15:30N 38°46' W 009°05'0 0.0
2019-Sep-15 15:00N 38°45' W 009°05'0 0.0
2019-Sep-15 14:30N 38°46' W 009°05'0 0.0
2019-Sep-15 14:00N 38°45' W 009°05'0 0.0
2019-Sep-15 13:30N 38°45' W 009°05'0 0.0
2019-Sep-15 13:00N 38°45' W 009°05'0 0.0
2019-Sep-15 12:30N 38°45' W 009°05'0 0.0
2019-Sep-15 12:00N 38°45' W 009°05'0 0.0
2019-Sep-15 11:30N 38°45' W 009°05'0 0.0
2019-Sep-15 11:00N 38°45' W 009°05'0 0.0
2019-Sep-15 10:30N 38°45' W 009°05'0 0.0
2019-Sep-15 10:00N 38°45' W 009°05'0 0.0
2019-Sep-15 09:30N 38°45' W 009°05'0 0.0
2019-Sep-15 09:00N 38°45' W 009°05'0 0.0
2019-Sep-15 08:30N 38°45' W 009°05'0 0.0
2019-Sep-15 08:00N 38°45' W 009°05'0 0.0
2019-Sep-15 07:30N 38°45' W 009°05'1 1.4
2019-Sep-15 07:00N 38°45' W 009°06'2 3.8
2019-Sep-15 06:30N 38°43' W 009°07'2 3.6
2019-Sep-15 06:00N 38°42' W 009°08'2 4.2
2019-Sep-15 05:30N 38°41' W 009°11'2 4.2
2019-Sep-15 05:00N 38°41' W 009°14'2 3.8
2019-Sep-15 04:30N 38°41' W 009°16'1 2.2
2019-Sep-15 04:00N 38°41' W 009°17'2 3.0
2019-Sep-15 03:30N 38°40' W 009°19'2 3.9
2019-Sep-15 03:00N 38°38' W 009°20'3 5.2
2019-Sep-15 02:30N 38°37' W 009°23'2 4.7
2019-Sep-15 02:00N 38°35' W 009°25'3 5.4
2019-Sep-15 01:30N 38°33' W 009°28'3 5.3
2019-Sep-15 01:00N 38°32' W 009°31'2 3.4
2019-Sep-15 00:30N 38°31' W 009°32'2 3.5
2019-Sep-15 00:00N 38°30' W 009°34'2 4.3
2019-Sep-14 23:30N 38°29' W 009°36'3 6.0
2019-Sep-14 23:00N 38°27' W 009°39'3 5.5
2019-Sep-14 22:30N 38°25' W 009°42'3 5.2
2019-Sep-14 22:00N 38°24' W 009°45'2 4.9
2019-Sep-14 21:30N 38°23' W 009°48'2 4.5
2019-Sep-14 21:00N 38°24' W 009°50'2 4.7
2019-Sep-14 20:30N 38°23' W 009°53'2 4.3
2019-Sep-14 20:00N 38°23' W 009°55'2 4.5
2019-Sep-14 19:30N 38°22' W 009°58'2 4.5
2019-Sep-14 19:00N 38°21' W 010°00'2 4.5
2019-Sep-14 18:30N 38°20' W 010°03'2 4.7
2019-Sep-14 18:00N 38°19' W 010°05'2 4.8
2019-Sep-14 17:30N 38°18' W 010°08'2 3.0
2019-Sep-14 16:44N 38°16' W 010°11'0 0.8
2019-Sep-14 16:30N 38°16' W 010°10'1 2.7
2019-Sep-14 16:00N 38°15' W 010°12'1 1.7
2019-Sep-14 15:30N 38°16' W 010°13'1 1.8
2019-Sep-14 15:00N 38°17' W 010°13'1 1.8
2019-Sep-14 14:30N 38°18' W 010°14'1 1.8
2019-Sep-14 13:54N 38°18' W 010°15'2 3.0
2019-Sep-14 13:16N 38°17' W 010°17'1 2.9
2019-Sep-14 13:00N 38°16' W 010°18'8 2.3
2019-Sep-14 09:31N 38°10' W 010°24'30 3.8
2019-Sep-14 01:42N 38°04' W 011°01'5 4.4
2019-Sep-14 00:39N 38°02' W 011°07'35 4.3
2019-Sep-13 16:38N 37°49' W 011°47'1 5.6
2019-Sep-13 16:30N 37°49' W 011°48'3 5.7
2019-Sep-13 16:00N 37°48' W 011°51'3 5.5
2019-Sep-13 15:29N 37°48' W 011°55'3 5.5
2019-Sep-13 15:00N 37°48' W 011°58'  

Dump ship's entire track history